createdAt,value
2019-02-05T00:01:42.648Z,8.07
2019-02-05T00:04:12.134Z,8.37
2019-02-05T00:06:41.658Z,7.93
2019-02-05T00:09:12.726Z,8.33
2019-02-05T00:11:42.219Z,8.63
2019-02-05T00:14:11.786Z,8.63
2019-02-05T00:16:41.923Z,8.43
2019-02-05T00:19:11.449Z,8.83
2019-02-05T00:21:40.915Z,8.87
2019-02-05T00:24:10.417Z,8.53
2019-02-05T00:26:39.892Z,8.97
2019-02-05T00:29:09.537Z,9.37
2019-02-05T00:31:39.253Z,9.30
2019-02-05T00:34:08.767Z,9.43
2019-02-05T00:36:38.298Z,9.37
2019-02-05T00:39:09.475Z,9.53
2019-02-05T00:41:39.081Z,9.93
2019-02-05T00:44:08.574Z,10.47
2019-02-05T00:46:38.152Z,10.80
2019-02-05T00:49:07.658Z,10.10
2019-02-05T00:51:37.170Z,11.37
2019-02-05T00:54:06.918Z,11.23
2019-02-05T00:56:36.405Z,11.47
2019-02-05T00:59:06.158Z,12.53
2019-02-05T01:01:35.780Z,12.50
2019-02-05T01:04:06.131Z,14.57
2019-02-05T01:06:35.603Z,13.17
2019-02-05T01:09:08.951Z,14.27
2019-02-05T01:11:38.471Z,14.63
2019-02-05T01:14:07.980Z,15.13
2019-02-05T01:16:37.475Z,13.97
2019-02-05T01:19:07.003Z,14.80
2019-02-05T01:21:35.888Z,14.97
2019-02-05T01:24:05.451Z,15.00
2019-02-05T01:26:34.959Z,15.13
2019-02-05T01:29:03.945Z,15.37
2019-02-05T01:31:33.475Z,16.20
2019-02-05T01:34:02.954Z,15.77
2019-02-05T01:36:32.475Z,16.07
2019-02-05T01:39:02.020Z,16.40
2019-02-05T01:41:31.534Z,17.53
2019-02-05T01:44:00.423Z,17.40
2019-02-05T01:46:29.947Z,17.67
2019-02-05T01:48:59.465Z,17.70
2019-02-05T01:51:28.962Z,16.97
2019-02-05T01:53:58.487Z,17.20
2019-02-05T01:56:28.404Z,17.33
2019-02-05T01:58:57.897Z,18.47
2019-02-05T02:01:27.445Z,18.67
2019-02-05T02:03:56.894Z,17.97
2019-02-05T02:06:26.595Z,18.33
2019-02-05T02:08:56.142Z,18.67
2019-02-05T02:11:26.042Z,18.97
2019-02-05T02:13:55.509Z,18.63
2019-02-05T02:16:25.003Z,20.40
2019-02-05T02:18:54.517Z,19.80
2019-02-05T02:21:24.022Z,20.80
2019-02-05T02:23:53.590Z,19.87
2019-02-05T02:26:23.334Z,20.03
2019-02-05T02:28:52.856Z,19.60
2019-02-05T02:31:22.362Z,19.60
2019-02-05T02:33:51.869Z,21.00
2019-02-05T02:36:21.412Z,19.33
2019-02-05T02:38:51.156Z,19.33
2019-02-05T02:41:21.086Z,20.80
2019-02-05T02:43:50.599Z,21.63
2019-02-05T02:46:20.063Z,21.67
2019-02-05T02:48:49.552Z,21.47
2019-02-05T02:51:19.060Z,21.73
2019-02-05T02:53:48.550Z,21.63
2019-02-05T02:56:18.366Z,23.00
2019-02-05T02:58:47.876Z,23.73
2019-02-05T03:01:17.346Z,21.83
2019-02-05T03:03:47.086Z,22.43
2019-02-05T03:06:16.626Z,22.67
2019-02-05T03:08:46.472Z,23.27
2019-02-05T03:11:16.386Z,23.07
2019-02-05T03:13:45.889Z,23.47
2019-02-05T03:16:15.393Z,24.30
2019-02-05T03:18:44.936Z,24.57
2019-02-05T03:21:14.467Z,25.27
2019-02-05T03:23:43.960Z,24.13
2019-02-05T03:26:13.495Z,25.10
2019-02-05T03:28:43.266Z,25.37
2019-02-05T03:31:12.752Z,25.27
2019-02-05T03:33:42.255Z,25.27
2019-02-05T03:36:11.862Z,25.03
2019-02-05T03:38:41.347Z,25.07
2019-02-05T03:41:10.914Z,26.03
2019-02-05T03:43:41.571Z,26.53
2019-02-05T03:46:13.712Z,25.43
2019-02-05T03:48:45.494Z,25.83
2019-02-05T03:51:24.371Z,25.43
2019-02-05T03:54:00.915Z,25.67
2019-02-05T03:56:48.123Z,25.83
2019-02-05T03:59:34.694Z,26.93
2019-02-05T04:02:45.548Z,27.23
2019-02-05T04:05:53.661Z,27.03
2019-02-05T04:09:21.152Z,28.80
2019-02-05T04:12:24.969Z,28.63
2019-02-05T04:15:25.403Z,28.47
2019-02-05T04:18:18.674Z,27.47
2019-02-05T04:21:30.639Z,29.97
2019-02-05T04:24:37.157Z,30.13
2019-02-05T04:27:43.691Z,30.20
2019-02-05T04:30:20.052Z,32.50
2019-02-05T04:33:09.535Z,29.20
2019-02-05T04:36:02.745Z,31.47
2019-02-05T04:38:39.873Z,31.13
2019-02-05T04:42:11.587Z,33.60
2019-02-05T04:45:33.782Z,33.07
2019-02-05T04:48:50.923Z,31.20
2019-02-05T04:52:04.608Z,31.97
2019-02-05T04:54:56.600Z,33.73
2019-02-05T04:58:03.414Z,33.37
2019-02-05T05:01:05.223Z,35.13
2019-02-05T05:04:02.276Z,33.53
2019-02-05T05:07:11.776Z,32.97
2019-02-05T05:09:58.151Z,33.97
2019-02-05T05:12:29.095Z,34.00
2019-02-05T05:14:59.149Z,32.27
2019-02-05T05:17:28.007Z,35.23
2019-02-05T05:19:57.602Z,34.17
2019-02-05T05:22:27.177Z,33.90
2019-02-05T05:24:56.680Z,32.70
2019-02-05T05:27:27.001Z,33.37
2019-02-05T05:29:56.665Z,32.13
2019-02-05T05:32:26.383Z,33.77
2019-02-05T05:34:55.947Z,32.90
2019-02-05T05:37:25.392Z,31.47
2019-02-05T05:39:54.931Z,34.17
2019-02-05T05:42:26.137Z,33.60
2019-02-05T05:44:55.666Z,32.97
2019-02-05T05:47:25.192Z,34.43
2019-02-05T05:49:54.674Z,35.50
2019-02-05T05:52:24.246Z,36.33
2019-02-05T05:54:53.723Z,38.10
2019-02-05T05:57:23.356Z,36.33
2019-02-05T05:59:52.873Z,35.60
2019-02-05T06:02:22.495Z,36.70
2019-02-05T06:04:52.034Z,36.33
2019-02-05T06:07:21.560Z,35.77
2019-02-05T06:09:51.079Z,37.73
2019-02-05T06:12:20.586Z,37.00
2019-02-05T06:14:50.631Z,36.27
2019-02-05T06:17:20.152Z,36.93
2019-02-05T06:19:49.651Z,38.20
2019-02-05T06:22:19.165Z,36.40
2019-02-05T06:24:49.046Z,38.73
2019-02-05T06:27:18.654Z,37.73
2019-02-05T06:29:48.568Z,37.80
2019-02-05T06:32:18.182Z,38.60
2019-02-05T06:34:47.713Z,35.67
2019-02-05T06:37:17.239Z,36.90
2019-02-05T06:39:46.801Z,37.03
2019-02-05T06:42:16.303Z,36.50
2019-02-05T06:44:46.233Z,37.67
2019-02-05T06:47:15.867Z,36.83
2019-02-05T06:49:45.391Z,37.83
2019-02-05T06:52:14.906Z,36.63
2019-02-05T06:54:44.430Z,38.20
2019-02-05T06:57:13.893Z,39.10
2019-02-05T06:59:43.518Z,39.07
2019-02-05T07:02:13.216Z,38.13
2019-02-05T07:04:42.742Z,34.50
2019-02-05T07:07:12.284Z,36.97
2019-02-05T07:09:41.825Z,37.77
2019-02-05T07:12:11.348Z,36.50
2019-02-05T07:14:40.903Z,36.00
2019-02-05T07:17:10.645Z,35.63
2019-02-05T07:19:40.319Z,36.50
2019-02-05T07:22:09.969Z,37.03
2019-02-05T07:24:39.452Z,36.97
2019-02-05T07:27:08.980Z,35.73
2019-02-05T07:29:38.624Z,36.13
2019-02-05T07:32:08.443Z,35.43
2019-02-05T07:34:37.935Z,36.07
2019-02-05T07:37:07.454Z,35.93
2019-02-05T07:39:37.008Z,35.37
2019-02-05T07:42:06.546Z,34.10
2019-02-05T07:44:36.355Z,32.67
2019-02-05T07:47:05.996Z,29.77
2019-02-05T07:49:36.083Z,30.03
2019-02-05T07:52:05.836Z,29.73
2019-02-05T07:54:35.343Z,30.43
2019-02-05T07:57:04.919Z,30.13
2019-02-05T07:59:34.414Z,29.27
2019-02-05T08:02:04.323Z,30.70
2019-02-05T08:04:33.842Z,28.97
2019-02-05T08:07:03.892Z,27.53
2019-02-05T08:09:33.459Z,27.87
2019-02-05T08:12:02.967Z,28.87
2019-02-05T08:14:32.586Z,30.03
2019-02-05T08:17:02.103Z,29.07
2019-02-05T08:19:31.663Z,28.27
2019-02-05T08:22:01.228Z,28.90
2019-02-05T08:24:31.196Z,28.00
2019-02-05T08:27:00.684Z,27.63
2019-02-05T08:29:30.384Z,27.40
2019-02-05T08:31:59.873Z,27.50
2019-02-05T08:34:29.519Z,27.10
2019-02-05T08:36:58.975Z,25.40
2019-02-05T08:39:28.549Z,26.97
2019-02-05T08:41:58.476Z,25.97
2019-02-05T08:44:27.973Z,26.33
2019-02-05T08:46:57.520Z,26.53
2019-02-05T08:49:27.018Z,25.63
2019-02-05T08:51:56.554Z,25.73
2019-02-05T08:54:26.066Z,26.60
2019-02-05T08:56:55.755Z,26.77
2019-02-05T08:59:25.261Z,25.33
2019-02-05T09:01:54.816Z,25.47
2019-02-05T09:04:24.302Z,25.97
2019-02-05T09:06:53.822Z,25.87
2019-02-05T09:09:23.316Z,25.20
2019-02-05T09:11:52.853Z,24.47
2019-02-05T09:14:22.718Z,24.80
2019-02-05T09:16:52.193Z,23.97
2019-02-05T09:19:21.732Z,22.47
2019-02-05T09:21:51.247Z,23.33
2019-02-05T09:24:20.875Z,21.80
2019-02-05T09:26:50.365Z,23.53
2019-02-05T09:29:20.116Z,21.40
2019-02-05T09:31:49.592Z,21.10
2019-02-05T09:34:19.175Z,21.60
2019-02-05T09:36:48.652Z,22.37
2019-02-05T09:39:18.183Z,21.27
2019-02-05T09:41:47.826Z,21.63
2019-02-05T09:44:17.346Z,21.40
2019-02-05T09:46:49.323Z,22.97
2019-02-05T09:49:18.807Z,22.33
2019-02-05T09:51:48.439Z,23.27
2019-02-05T09:54:17.962Z,22.33
2019-02-05T09:56:47.468Z,23.57
2019-02-05T09:59:16.957Z,23.50
2019-02-05T10:01:47.104Z,23.60
2019-02-05T10:04:16.671Z,24.03
2019-02-05T10:06:46.207Z,23.47
2019-02-05T10:09:15.719Z,22.53
2019-02-05T10:11:45.249Z,24.27
2019-02-05T10:14:14.801Z,22.90
2019-02-05T10:16:44.323Z,23.20
2019-02-05T10:19:14.114Z,23.37
2019-02-05T10:21:43.635Z,23.50
2019-02-05T10:24:13.194Z,23.53
2019-02-05T10:26:42.850Z,24.30
2019-02-05T10:29:12.588Z,24.33
2019-02-05T10:31:42.129Z,25.00
2019-02-05T10:34:12.077Z,24.87
2019-02-05T10:36:41.589Z,23.80
2019-02-05T10:39:12.239Z,24.50
2019-02-05T10:41:41.965Z,25.20
2019-02-05T10:44:11.507Z,25.70
2019-02-05T10:46:41.490Z,25.60
2019-02-05T10:49:11.412Z,24.97
2019-02-05T10:51:41.020Z,25.43
2019-02-05T10:54:10.521Z,26.63
2019-02-05T10:56:40.092Z,28.07
2019-02-05T10:59:09.616Z,27.13
2019-02-05T11:01:39.287Z,27.00
2019-02-05T11:04:08.788Z,26.47
2019-02-05T11:06:38.551Z,26.30
2019-02-05T11:09:10.232Z,25.20
2019-02-05T11:11:39.747Z,26.43
2019-02-05T11:14:09.295Z,26.10
2019-02-05T11:16:38.791Z,27.00
2019-02-05T11:19:08.376Z,25.87
2019-02-05T11:21:38.314Z,25.37
2019-02-05T11:24:07.841Z,24.73
2019-02-05T11:26:37.390Z,25.13
2019-02-05T11:29:07.123Z,24.83
2019-02-05T11:31:36.681Z,24.87
2019-02-05T11:34:06.372Z,25.00
2019-02-05T11:36:35.887Z,23.83
2019-02-05T11:39:07.187Z,23.57
2019-02-05T11:41:36.726Z,24.77
2019-02-05T11:44:06.390Z,24.13
2019-02-05T11:46:35.914Z,24.93
2019-02-05T11:49:05.711Z,22.67
2019-02-05T11:51:35.400Z,22.03
2019-02-05T11:54:05.326Z,22.20
2019-02-05T11:56:34.900Z,21.23
2019-02-05T11:59:04.419Z,21.13
2019-02-05T12:01:38.867Z,21.80
2019-02-05T12:04:06.830Z,21.50
2019-02-05T12:06:36.321Z,21.57
2019-02-05T12:09:17.176Z,18.87
2019-02-05T12:11:46.698Z,18.73
2019-02-05T12:14:16.233Z,17.90
2019-02-05T12:16:45.855Z,18.30
2019-02-05T12:19:15.305Z,18.90
2019-02-05T12:21:45.049Z,18.00
2019-02-05T12:24:14.738Z,18.00
2019-02-05T12:26:44.422Z,18.10
2019-02-05T12:29:13.986Z,18.53
2019-02-05T12:31:44.851Z,19.20
2019-02-05T12:34:16.272Z,18.03
2019-02-05T12:36:46.494Z,18.57
2019-02-05T12:39:22.018Z,18.43
2019-02-05T12:41:51.559Z,17.53
2019-02-05T12:44:21.108Z,18.63
2019-02-05T12:46:50.680Z,18.13
2019-02-05T12:49:20.295Z,19.57
2019-02-05T12:51:49.879Z,19.20
2019-02-05T12:54:19.471Z,18.53
2019-02-05T12:56:48.938Z,19.80
2019-02-05T12:59:18.540Z,19.83
2019-02-05T13:01:48.025Z,18.87
2019-02-05T13:04:17.517Z,18.53
2019-02-05T13:06:47.046Z,19.37
2019-02-05T13:09:22.529Z,19.00
2019-02-05T13:11:58.074Z,18.67
2019-02-05T13:14:28.247Z,19.47
2019-02-05T13:17:02.432Z,18.53
2019-02-05T13:19:32.270Z,17.93
2019-02-05T13:22:02.280Z,18.70
2019-02-05T13:24:52.187Z,18.57
2019-02-05T13:27:22.778Z,17.87
2019-02-05T13:29:55.990Z,18.07
2019-02-05T13:32:25.503Z,17.43
2019-02-05T13:35:03.065Z,18.80
2019-02-05T13:37:33.508Z,18.37
2019-02-05T13:40:03.066Z,17.17
2019-02-05T13:42:33.331Z,17.77
2019-02-05T13:45:03.442Z,17.63
2019-02-05T13:47:32.965Z,17.60
2019-02-05T13:50:05.445Z,17.63
2019-02-05T13:52:35.123Z,17.27
2019-02-05T13:55:06.585Z,16.80
2019-02-05T13:57:36.191Z,17.63
2019-02-05T14:00:09.164Z,16.83
2019-02-05T14:02:42.881Z,16.60
2019-02-05T14:05:12.463Z,17.77
2019-02-05T14:07:42.487Z,16.80
2019-02-05T14:10:16.020Z,16.23
2019-02-05T14:12:45.603Z,15.77
2019-02-05T14:15:15.396Z,16.43
2019-02-05T14:17:44.907Z,15.97
2019-02-05T14:20:14.370Z,16.73
2019-02-05T14:22:44.180Z,16.23
2019-02-05T14:25:14.114Z,16.17
2019-02-05T14:27:43.661Z,15.60
2019-02-05T14:30:18.614Z,16.03
2019-02-05T14:32:48.159Z,16.60
2019-02-05T14:35:17.766Z,15.57
2019-02-05T14:37:47.346Z,14.97
2019-02-05T14:40:18.303Z,16.00
2019-02-05T14:42:47.855Z,15.00
2019-02-05T14:45:17.525Z,15.43
2019-02-05T14:47:47.148Z,15.20
2019-02-05T14:50:20.314Z,15.40
2019-02-05T14:52:49.932Z,16.20
2019-02-05T14:55:19.456Z,14.80
2019-02-05T14:57:49.131Z,15.50
2019-02-05T15:00:24.695Z,15.43
2019-02-05T15:02:54.707Z,14.97
2019-02-05T15:05:24.252Z,15.10
2019-02-05T15:07:53.796Z,14.03
2019-02-05T15:10:23.428Z,14.97
2019-02-05T15:12:53.030Z,15.50
2019-02-05T15:15:22.865Z,14.70
2019-02-05T15:17:53.145Z,15.10
2019-02-05T15:20:24.096Z,15.40
2019-02-05T15:22:53.640Z,15.77
2019-02-05T15:25:23.376Z,15.37
2019-02-05T15:27:52.906Z,16.20
2019-02-05T15:30:23.329Z,15.50
2019-02-05T15:33:29.885Z,15.17
2019-02-05T15:36:01.681Z,15.83
2019-02-05T15:38:31.730Z,15.37
2019-02-05T15:41:01.375Z,15.83
2019-02-05T15:43:30.868Z,15.43
2019-02-05T15:46:00.349Z,15.67
2019-02-05T15:48:31.450Z,15.53
2019-02-05T15:51:00.978Z,17.03
2019-02-05T15:53:30.435Z,15.67
2019-02-05T15:55:59.938Z,16.37
2019-02-05T15:58:29.499Z,15.27
2019-02-05T16:00:59.053Z,15.03
2019-02-05T16:03:28.561Z,14.90
2019-02-05T16:05:58.058Z,16.70
2019-02-05T16:08:27.775Z,16.93
2019-02-05T16:10:57.308Z,15.90
2019-02-05T16:13:26.844Z,16.13
2019-02-05T16:15:56.338Z,16.17
2019-02-05T16:18:25.835Z,16.00
2019-02-05T16:20:55.338Z,15.93
2019-02-05T16:23:24.876Z,16.07
2019-02-05T16:25:54.404Z,16.17
2019-02-05T16:28:23.932Z,15.73
2019-02-05T16:30:53.415Z,15.53
2019-02-05T16:33:22.924Z,16.20
2019-02-05T16:35:52.427Z,14.80
2019-02-05T16:38:22.076Z,16.53
2019-02-05T16:40:53.316Z,15.43
2019-02-05T16:43:23.440Z,15.50
2019-02-05T16:45:52.944Z,15.67
2019-02-05T16:48:22.415Z,16.57
2019-02-05T16:50:51.316Z,15.50
2019-02-05T16:53:20.873Z,15.47
2019-02-05T16:55:50.487Z,15.67
2019-02-05T16:58:19.986Z,15.50
2019-02-05T17:00:49.609Z,15.80
2019-02-05T17:03:19.099Z,16.17
2019-02-05T17:05:48.610Z,15.43
2019-02-05T17:08:18.135Z,15.27
2019-02-05T17:10:47.621Z,14.77
2019-02-05T17:13:17.164Z,15.37
2019-02-05T17:15:46.635Z,15.33
2019-02-05T17:18:23.155Z,14.47
2019-02-05T17:20:47.331Z,14.33
2019-02-05T17:23:16.844Z,14.10
2019-02-05T17:25:46.356Z,14.80
2019-02-05T17:28:15.855Z,13.97
2019-02-05T17:30:45.367Z,14.17
2019-02-05T17:33:14.875Z,13.83
2019-02-05T17:35:45.101Z,14.20
2019-02-05T17:38:14.693Z,14.73
2019-02-05T17:40:44.203Z,14.63
2019-02-05T17:43:13.990Z,14.87
2019-02-05T17:45:43.799Z,15.87
2019-02-05T17:48:16.359Z,13.93
2019-02-05T17:50:46.159Z,14.43
2019-02-05T17:53:15.676Z,15.20
2019-02-05T17:55:45.329Z,14.43
2019-02-05T17:58:14.857Z,15.00
2019-02-05T18:00:53.209Z,15.33
2019-02-05T18:03:22.940Z,14.73
2019-02-05T18:05:52.444Z,14.83
2019-02-05T18:08:21.973Z,15.63
2019-02-05T18:10:51.454Z,15.40
2019-02-05T18:13:20.967Z,15.77
2019-02-05T18:15:50.498Z,15.23
2019-02-05T18:18:20.262Z,15.10
2019-02-05T18:20:49.757Z,16.23
2019-02-05T18:23:19.327Z,15.97
2019-02-05T18:25:48.867Z,14.67
2019-02-05T18:28:18.340Z,14.83
2019-02-05T18:30:47.818Z,15.47
2019-02-05T18:33:17.392Z,16.23
2019-02-05T18:35:46.966Z,17.13
2019-02-05T18:38:16.842Z,16.27
2019-02-05T18:40:46.322Z,16.40
2019-02-05T18:43:15.839Z,17.13
2019-02-05T18:45:45.396Z,17.23
2019-02-05T18:48:14.901Z,17.87
2019-02-05T18:50:44.365Z,17.47
2019-02-05T18:53:13.251Z,17.53
2019-02-05T18:55:42.864Z,17.63
2019-02-05T18:58:12.480Z,16.73
2019-02-05T19:00:42.911Z,16.73
2019-02-05T19:03:16.340Z,16.20
2019-02-05T19:05:44.056Z,16.60
2019-02-05T19:08:16.221Z,15.77
2019-02-05T19:10:44.773Z,16.07
2019-02-05T19:13:14.327Z,16.03
2019-02-05T19:15:44.296Z,16.23
2019-02-05T19:18:13.878Z,16.47
2019-02-05T19:20:43.559Z,16.83
2019-02-05T19:23:13.036Z,16.30
2019-02-05T19:25:53.992Z,17.53
2019-02-05T19:28:31.663Z,16.67
2019-02-05T19:31:05.244Z,17.93
2019-02-05T19:33:46.604Z,18.77
2019-02-05T19:36:16.181Z,18.97
2019-02-05T19:38:45.911Z,19.20
2019-02-05T19:41:15.439Z,19.57
2019-02-05T19:43:44.938Z,19.93
2019-02-05T19:46:36.364Z,19.73
2019-02-05T19:49:24.999Z,18.53
2019-02-05T19:51:54.519Z,19.40
2019-02-05T19:54:24.587Z,19.87
2019-02-05T19:56:54.116Z,20.90
2019-02-05T19:59:23.990Z,21.67
2019-02-05T20:01:53.538Z,21.80
2019-02-05T20:04:23.937Z,21.00
2019-02-05T20:06:53.455Z,19.50
2019-02-05T20:09:22.938Z,21.33
2019-02-05T20:11:52.549Z,20.57
2019-02-05T20:14:22.039Z,22.13
2019-02-05T20:16:51.589Z,21.17
2019-02-05T20:19:24.450Z,22.03
2019-02-05T20:21:52.670Z,22.47
2019-02-05T20:24:22.165Z,23.13
2019-02-05T20:26:51.736Z,20.80
2019-02-05T20:29:21.275Z,23.37
2019-02-05T20:31:50.912Z,24.83
2019-02-05T20:34:20.433Z,24.70
2019-02-05T20:36:49.957Z,23.93
2019-02-05T20:39:19.662Z,25.50
2019-02-05T20:41:49.168Z,24.50
2019-02-05T20:44:18.722Z,26.73
2019-02-05T20:46:48.283Z,28.50
2019-02-05T20:49:17.905Z,28.30
2019-02-05T20:51:48.043Z,29.47
2019-02-05T20:54:18.778Z,29.53
2019-02-05T20:56:48.706Z,29.77
2019-02-05T20:59:18.352Z,31.83
2019-02-05T21:01:47.823Z,30.77
2019-02-05T21:04:17.299Z,33.23
2019-02-05T21:06:47.471Z,31.83
2019-02-05T21:09:21.131Z,33.50
2019-02-05T21:11:50.627Z,33.70
2019-02-05T21:14:20.164Z,31.73
2019-02-05T21:16:49.675Z,31.13
2019-02-05T21:19:18.526Z,32.90
2019-02-05T21:21:48.511Z,31.30
2019-02-05T21:24:18.031Z,31.87
2019-02-05T21:26:47.527Z,31.60
2019-02-05T21:29:17.112Z,31.33
2019-02-05T21:31:46.581Z,30.50
2019-02-05T21:34:16.348Z,30.53
2019-02-05T21:36:46.080Z,30.57
2019-02-05T21:39:15.781Z,30.47
2019-02-05T21:41:45.355Z,30.53
2019-02-05T21:44:14.938Z,32.83
2019-02-05T21:46:44.471Z,31.37
2019-02-05T21:49:14.030Z,31.53
2019-02-05T21:51:43.782Z,30.77
2019-02-05T21:54:13.451Z,30.30
2019-02-05T21:56:43.027Z,31.97
2019-02-05T21:59:12.557Z,29.37
2019-02-05T22:01:42.094Z,31.43
2019-02-05T22:04:11.536Z,30.10
2019-02-05T22:06:41.086Z,32.07
2019-02-05T22:09:12.691Z,32.43
2019-02-05T22:11:42.269Z,30.33
2019-02-05T22:14:11.886Z,28.83
2019-02-05T22:16:41.361Z,30.27
2019-02-05T22:19:11.435Z,30.13
2019-02-05T22:21:40.921Z,29.80
2019-02-05T22:24:10.412Z,28.83
2019-02-05T22:26:39.912Z,31.43
2019-02-05T22:29:10.183Z,30.43
2019-02-05T22:31:39.656Z,29.40
2019-02-05T22:34:09.744Z,29.90
2019-02-05T22:36:39.250Z,28.60
2019-02-05T22:39:10.523Z,29.50
2019-02-05T22:41:39.988Z,28.37
2019-02-05T22:44:09.596Z,28.33
2019-02-05T22:46:39.587Z,29.97
2019-02-05T22:49:09.280Z,27.90
2019-02-05T22:51:39.051Z,28.17
2019-02-05T22:54:07.946Z,28.30
2019-02-05T22:56:37.457Z,28.10
2019-02-05T22:59:07.555Z,28.13
2019-02-05T23:01:55.982Z,29.77
2019-02-05T23:05:06.323Z,28.80
2019-02-05T23:07:35.818Z,29.17
2019-02-05T23:10:11.098Z,28.23
2019-02-05T23:12:48.043Z,28.23
2019-02-05T23:15:29.110Z,28.30
2019-02-05T23:17:58.995Z,28.07
2019-02-05T23:20:28.912Z,28.20
2019-02-05T23:22:58.468Z,28.47
2019-02-05T23:25:27.950Z,27.23
2019-02-05T23:27:57.448Z,27.53
2019-02-05T23:30:28.575Z,27.80
2019-02-05T23:32:58.561Z,29.50
2019-02-05T23:35:28.670Z,29.23
2019-02-05T23:37:58.126Z,28.07
2019-02-05T23:40:27.627Z,29.60
2019-02-05T23:42:57.126Z,28.73
2019-02-05T23:45:26.623Z,28.50
2019-02-05T23:47:56.121Z,29.07
2019-02-05T23:50:26.013Z,29.00
2019-02-05T23:52:55.530Z,28.10
2019-02-05T23:55:25.029Z,27.47
2019-02-05T23:57:54.575Z,27.47
